Portada
METAR-TAF:

METAR-TAF

Aeroports :

Kizilordà, Kazakhstan

latitud: 44-51N, longitud: 065-30E, altitud: 129 m

Observació

L'informe es va fer fa 14 minuts, a les 22:00 UTC
Vent 10 kt del Est/Nord-Est
Temperatura 26°C
Humitat 28%
Pressió 1013 hPa
Visibilitat 10 km o més
sense núvols per sota de 1500 mi sense presència de cumulonimbus.

METAR: UAOO 252200Z 07005MPS CAVOK 26/06 Q1013 NOSIG RMK QFE748/0997

Hora: 03:14 (22:14 UTC)

Pronòstic

L'informe es va fer fa 2 hores i 14 minuts, a les 20:00 UTC
Pronòstic vàlid del 25 a les 21 UTC al 26 a les 06 UTC
Vent 10 kt del Est/Nord-Est
Visibilitat 10 km o més
sense núvols per sota de 1500 mi sense presència de cumulonimbus.

TAF: UAOO 252000Z 2521/2606 07005MPS CAVOK

Observacions i pronòstics meteorològics de més de 4000 aeroports (METAR i TAF).

Les estacions disponibles són els punts grocs i vermells al mapa.

Posi el ratolí al punt desitjat per veure el nom de l'estació.

Feu clic per veure les observacions i els pronòstics meteorològics.

Per canviar el mapa: feu clic els botons verds amb una creu de color negre per apropar; al botó verd amb un guió per allunyar la imatge; o en les fletxes verdes per a mapes adjacents.


METAR-TAF: